createdAt,value
2022-11-19T00:01:18.597Z,5.10
2022-11-19T00:03:51.169Z,5.10
2022-11-19T00:06:24.414Z,5.20
2022-11-19T00:08:51.216Z,5.20
2022-11-19T00:11:39.544Z,5.20
2022-11-19T00:14:06.915Z,5.20
2022-11-19T00:16:33.729Z,5.30
2022-11-19T00:19:00.580Z,5.30
2022-11-19T00:21:27.228Z,5.40
2022-11-19T00:23:55.063Z,5.40
2022-11-19T00:26:22.276Z,5.40
2022-11-19T00:28:49.230Z,5.40
2022-11-19T00:31:16.564Z,5.30
2022-11-19T00:33:45.285Z,5.30
2022-11-19T00:36:13.785Z,5.30
2022-11-19T00:38:40.502Z,5.30
2022-11-19T00:41:07.639Z,5.30
2022-11-19T00:43:52.435Z,5.30
2022-11-19T00:46:27.786Z,5.30
2022-11-19T00:48:56.023Z,5.30
2022-11-19T00:51:24.336Z,5.40
2022-11-19T00:53:51.183Z,5.40
2022-11-19T00:56:20.037Z,5.40
2022-11-19T00:58:47.697Z,5.40
2022-11-19T01:01:15.441Z,5.40
2022-11-19T01:03:45.324Z,5.40
2022-11-19T01:06:17.787Z,5.40
2022-11-19T01:08:45.804Z,5.30
2022-11-19T01:11:15.501Z,5.30
2022-11-19T01:13:42.746Z,5.30
2022-11-19T01:16:21.350Z,5.20
2022-11-19T01:18:49.453Z,5.20
2022-11-19T01:21:17.700Z,5.20
2022-11-19T01:23:45.191Z,5.20
2022-11-19T01:26:13.253Z,5.10
2022-11-19T01:28:40.303Z,5.10
2022-11-19T01:31:19.747Z,5.10
2022-11-19T01:33:46.816Z,5.10
2022-11-19T01:36:22.117Z,5.10
2022-11-19T01:38:52.159Z,5.10
2022-11-19T01:41:20.400Z,5.10
2022-11-19T01:43:48.759Z,5.10
2022-11-19T01:46:20.870Z,5.10
2022-11-19T01:48:58.978Z,5.00
2022-11-19T01:51:37.991Z,5.00
2022-11-19T01:54:20.330Z,5.10
2022-11-19T01:56:47.384Z,5.10
2022-11-19T01:59:17.754Z,5.10
2022-11-19T02:01:45.113Z,5.10
2022-11-19T02:04:15.457Z,5.10
2022-11-19T02:06:44.213Z,5.20
2022-11-19T02:09:10.821Z,5.20
2022-11-19T02:11:40.289Z,5.20
2022-11-19T02:14:37.932Z,5.20
2022-11-19T02:17:13.764Z,5.30
2022-11-19T02:19:59.878Z,5.30
2022-11-19T02:23:00.753Z,5.30
2022-11-19T02:25:45.472Z,5.40
2022-11-19T02:28:33.539Z,5.40
2022-11-19T02:31:21.004Z,5.40
2022-11-19T02:34:23.477Z,5.40
2022-11-19T02:36:53.095Z,5.30
2022-11-19T02:39:36.311Z,5.30
2022-11-19T02:42:33.765Z,5.30
2022-11-19T02:45:12.540Z,5.30
2022-11-19T02:47:46.705Z,5.20
2022-11-19T02:50:20.395Z,5.20
2022-11-19T02:52:48.265Z,5.20
2022-11-19T02:55:20.111Z,5.20
2022-11-19T02:57:59.247Z,5.30
2022-11-19T03:00:45.638Z,5.30
2022-11-19T03:03:35.197Z,5.30
2022-11-19T03:06:16.226Z,5.30
2022-11-19T03:08:44.008Z,5.30
2022-11-19T03:11:34.341Z,5.30
2022-11-19T03:14:44.680Z,5.30
2022-11-19T03:17:21.336Z,5.30
2022-11-19T03:20:08.002Z,5.30
2022-11-19T03:22:53.647Z,5.30
2022-11-19T03:25:28.523Z,5.30
2022-11-19T03:28:01.263Z,5.40
2022-11-19T03:30:30.479Z,5.40
2022-11-19T03:33:06.716Z,5.40
2022-11-19T03:35:40.335Z,5.40
2022-11-19T03:38:11.084Z,5.40
2022-11-19T03:40:40.856Z,5.40
2022-11-19T03:43:11.520Z,5.40
2022-11-19T03:45:43.287Z,5.30
2022-11-19T03:48:13.023Z,5.30
2022-11-19T03:50:54.152Z,5.30
2022-11-19T03:53:21.898Z,5.40
2022-11-19T03:56:04.228Z,5.30
2022-11-19T03:58:40.629Z,5.30
2022-11-19T04:01:08.185Z,5.30
2022-11-19T04:03:34.879Z,5.30
2022-11-19T04:06:02.043Z,5.30
2022-11-19T04:08:28.695Z,5.30
2022-11-19T04:10:55.343Z,5.30
2022-11-19T04:13:21.991Z,5.40
2022-11-19T04:15:48.723Z,5.40
2022-11-19T04:18:15.482Z,5.40
2022-11-19T04:20:45.186Z,5.40
2022-11-19T04:23:11.829Z,5.40
2022-11-19T04:25:40.363Z,5.50
2022-11-19T04:28:07.004Z,5.50
2022-11-19T04:30:33.638Z,5.50
2022-11-19T04:33:00.274Z,5.40
2022-11-19T04:35:26.912Z,5.40
2022-11-19T04:37:53.598Z,5.40
2022-11-19T04:40:20.250Z,5.40
2022-11-19T04:42:46.885Z,5.40
2022-11-19T04:45:13.559Z,5.40
2022-11-19T04:47:40.200Z,5.40
2022-11-19T04:50:07.798Z,5.40
2022-11-19T04:52:40.315Z,5.40
2022-11-19T04:55:07.986Z,5.40
2022-11-19T04:57:34.618Z,5.40
2022-11-19T05:00:01.331Z,5.40
2022-11-19T05:02:27.975Z,5.40
2022-11-19T05:04:54.627Z,5.30
2022-11-19T05:07:21.361Z,5.30
2022-11-19T05:09:48.131Z,5.30
2022-11-19T05:12:14.770Z,5.30
2022-11-19T05:14:41.431Z,5.30
2022-11-19T05:17:08.135Z,5.30
2022-11-19T05:19:34.796Z,5.30
2022-11-19T05:22:01.436Z,5.40
2022-11-19T05:24:28.099Z,5.40
2022-11-19T05:26:54.744Z,5.30
2022-11-19T05:29:21.677Z,5.30
2022-11-19T05:31:48.671Z,5.30
2022-11-19T05:34:15.315Z,5.30
2022-11-19T05:36:41.927Z,5.40
2022-11-19T05:39:08.709Z,5.40
2022-11-19T05:41:35.655Z,5.40
2022-11-19T05:44:02.406Z,5.40
2022-11-19T05:46:29.162Z,5.30
2022-11-19T05:48:56.084Z,5.30
2022-11-19T05:51:22.871Z,5.30
2022-11-19T05:53:49.552Z,5.30
2022-11-19T05:56:17.418Z,5.30
2022-11-19T05:58:44.209Z,5.20
2022-11-19T06:01:10.901Z,5.20
2022-11-19T06:03:37.633Z,5.20
2022-11-19T06:06:04.573Z,5.10
2022-11-19T06:08:31.491Z,5.10
2022-11-19T06:10:58.158Z,5.10
2022-11-19T06:13:24.874Z,5.00
2022-11-19T06:15:52.474Z,5.00
2022-11-19T06:18:19.124Z,5.00
2022-11-19T06:20:45.885Z,5.00
2022-11-19T06:23:12.528Z,5.00
2022-11-19T06:25:39.338Z,5.00
2022-11-19T06:28:05.986Z,5.00
2022-11-19T06:30:32.689Z,5.10
2022-11-19T06:32:59.337Z,5.10
2022-11-19T06:35:25.971Z,5.10
2022-11-19T06:37:52.925Z,5.10
2022-11-19T06:40:19.597Z,5.10
2022-11-19T06:42:50.769Z,5.10
2022-11-19T06:45:17.848Z,5.10
2022-11-19T06:47:48.449Z,5.20
2022-11-19T06:50:15.294Z,5.20
2022-11-19T06:52:42.013Z,5.20
2022-11-19T06:55:09.051Z,5.20
2022-11-19T06:57:35.717Z,5.30
2022-11-19T07:00:03.272Z,5.30
2022-11-19T07:02:30.132Z,5.30
2022-11-19T07:04:56.784Z,5.30
2022-11-19T07:07:23.509Z,5.30
2022-11-19T07:09:50.309Z,5.30
2022-11-19T07:12:16.961Z,5.40
2022-11-19T07:14:43.754Z,5.30
2022-11-19T07:17:10.538Z,5.40
2022-11-19T07:19:37.247Z,5.40
2022-11-19T07:22:03.969Z,5.40
2022-11-19T07:35:00.429Z,5.50
2022-11-19T07:37:27.113Z,5.50
2022-11-19T07:39:53.810Z,5.50
2022-11-19T07:42:39.124Z,5.50
2022-11-19T07:45:06.468Z,5.50
2022-11-19T07:47:34.380Z,5.50
2022-11-19T07:50:01.180Z,5.50
2022-11-19T07:52:27.968Z,5.60
2022-11-19T07:54:54.637Z,5.60
2022-11-19T07:57:24.597Z,5.60
2022-11-19T07:59:53.970Z,5.70
2022-11-19T08:02:20.770Z,5.80
2022-11-19T08:04:47.427Z,5.80
2022-11-19T08:07:14.261Z,5.80
2022-11-19T08:09:41.000Z,5.90
2022-11-19T08:12:07.792Z,6.00
2022-11-19T08:14:34.434Z,6.00
2022-11-19T08:17:19.558Z,6.10
2022-11-19T08:19:46.175Z,6.10
2022-11-19T08:22:12.967Z,6.20
2022-11-19T08:24:39.631Z,6.30
2022-11-19T08:27:06.363Z,6.50
2022-11-19T08:29:33.102Z,6.60
2022-11-19T08:31:59.745Z,6.60
2022-11-19T08:34:26.436Z,6.60
2022-11-19T08:36:53.070Z,6.60
2022-11-19T08:39:19.771Z,6.60
2022-11-19T08:42:05.041Z,6.60
2022-11-19T08:44:31.676Z,6.60
2022-11-19T08:46:58.303Z,6.60
2022-11-19T08:49:25.186Z,6.70
2022-11-19T08:51:52.167Z,6.70
2022-11-19T08:54:19.288Z,6.80
2022-11-19T08:56:46.281Z,7.00
2022-11-19T08:59:12.924Z,7.10
2022-11-19T09:01:39.679Z,7.20
2022-11-19T09:04:06.473Z,7.30
2022-11-19T09:06:36.092Z,7.40
2022-11-19T09:09:04.698Z,7.60
2022-11-19T09:11:31.753Z,7.70
2022-11-19T09:13:58.576Z,7.80
2022-11-19T09:16:25.526Z,7.90
2022-11-19T09:18:53.369Z,7.90
2022-11-19T09:21:20.253Z,7.80
2022-11-19T09:23:46.916Z,7.90
2022-11-19T09:26:15.762Z,7.80
2022-11-19T09:28:43.112Z,7.80
2022-11-19T09:31:17.900Z,7.70
2022-11-19T09:33:46.803Z,7.70
2022-11-19T09:36:14.607Z,7.60
2022-11-19T09:38:41.570Z,7.50
2022-11-19T09:41:43.514Z,7.60
2022-11-19T09:44:36.114Z,7.60
2022-11-19T09:47:27.206Z,7.70
2022-11-19T09:50:26.629Z,7.70
2022-11-19T09:52:56.145Z,7.60
2022-11-19T09:55:35.251Z,7.60
2022-11-19T09:58:05.921Z,7.60
2022-11-19T10:00:32.986Z,7.60
2022-11-19T10:03:05.955Z,7.70
2022-11-19T10:05:43.495Z,7.70
2022-11-19T10:08:15.469Z,7.80
2022-11-19T10:11:25.095Z,7.80
2022-11-19T10:13:57.620Z,7.90
2022-11-19T10:16:39.707Z,7.90
2022-11-19T10:19:24.334Z,7.90
2022-11-19T10:22:09.898Z,7.90
2022-11-19T10:24:44.870Z,7.90
2022-11-19T10:27:33.173Z,7.80
2022-11-19T10:30:06.326Z,7.80
2022-11-19T10:32:38.747Z,7.70
2022-11-19T10:35:17.513Z,7.70
2022-11-19T10:37:58.833Z,7.70
2022-11-19T10:40:32.548Z,7.60
2022-11-19T10:43:18.144Z,7.50
2022-11-19T10:45:47.308Z,7.40
2022-11-19T10:48:20.851Z,7.40
2022-11-19T10:50:47.773Z,7.50
2022-11-19T10:53:33.206Z,7.50
2022-11-19T10:56:21.350Z,7.50
2022-11-19T10:59:03.867Z,7.50
2022-11-19T11:01:34.823Z,7.60
2022-11-19T11:04:11.968Z,7.70
2022-11-19T11:06:51.272Z,7.70
2022-11-19T11:09:38.138Z,7.80
2022-11-19T11:12:37.258Z,7.80
2022-11-19T11:15:21.473Z,7.80
2022-11-19T11:17:59.642Z,7.90
2022-11-19T11:20:28.714Z,8.00
2022-11-19T11:23:15.137Z,8.10
2022-11-19T11:26:07.949Z,8.10
2022-11-19T11:28:35.186Z,8.20
2022-11-19T11:31:04.490Z,8.40
2022-11-19T11:33:42.595Z,8.70
2022-11-19T11:36:25.348Z,8.90
2022-11-19T11:38:55.241Z,8.90
2022-11-19T11:42:04.898Z,8.80
2022-11-19T11:44:30.497Z,8.70
2022-11-19T11:47:00.568Z,8.60
2022-11-19T11:49:37.511Z,8.50
2022-11-19T11:52:18.186Z,8.60
2022-11-19T11:55:28.257Z,8.70
2022-11-19T11:58:01.265Z,8.80
2022-11-19T12:00:45.800Z,8.90
2022-11-19T12:03:18.679Z,8.90
2022-11-19T12:06:00.292Z,8.90
2022-11-19T12:09:06.126Z,8.80
2022-11-19T12:11:56.343Z,8.40
2022-11-19T12:14:32.250Z,8.20
2022-11-19T12:17:07.489Z,8.00
2022-11-19T12:20:06.913Z,7.90
2022-11-19T12:23:11.553Z,7.90
2022-11-19T12:25:52.977Z,8.20
2022-11-19T12:28:19.550Z,8.60
2022-11-19T12:31:10.968Z,9.10
2022-11-19T12:33:50.186Z,9.30
2022-11-19T12:36:42.887Z,9.40
2022-11-19T12:39:32.210Z,9.70
2022-11-19T12:42:19.959Z,9.60
2022-11-19T12:44:49.642Z,9.50
2022-11-19T12:47:52.296Z,9.40
2022-11-19T12:50:47.923Z,9.30
2022-11-19T12:53:20.328Z,9.50
2022-11-19T12:56:08.153Z,9.60
2022-11-19T12:59:03.841Z,9.30
2022-11-19T13:01:35.697Z,9.10
2022-11-19T13:04:08.747Z,9.00
2022-11-19T13:06:44.979Z,8.90
2022-11-19T13:09:25.655Z,8.80
2022-11-19T13:11:59.828Z,8.90
2022-11-19T13:14:40.993Z,9.10
2022-11-19T13:17:15.433Z,9.40
2022-11-19T13:19:43.635Z,9.70
2022-11-19T13:22:19.530Z,9.90
2022-11-19T13:24:51.091Z,10.00
2022-11-19T13:27:28.580Z,9.90
2022-11-19T13:30:03.730Z,9.80
2022-11-19T13:32:38.962Z,9.60
2022-11-19T13:35:31.825Z,9.40
2022-11-19T13:38:07.163Z,9.10
2022-11-19T13:40:46.616Z,8.70
2022-11-19T13:43:38.081Z,8.40
2022-11-19T13:46:13.453Z,8.10
2022-11-19T13:48:57.295Z,7.90
2022-11-19T13:51:35.086Z,7.80
2022-11-19T13:54:04.179Z,7.90
2022-11-19T13:56:48.285Z,7.90
2022-11-19T13:59:28.344Z,7.90
2022-11-19T14:02:36.833Z,8.10
2022-11-19T14:05:09.636Z,8.30
2022-11-19T14:07:53.441Z,8.60
2022-11-19T14:10:33.186Z,8.70
2022-11-19T14:13:11.818Z,8.90
2022-11-19T14:16:09.351Z,8.90
2022-11-19T14:19:00.089Z,9.00
2022-11-19T14:21:45.536Z,8.80
2022-11-19T14:25:06.201Z,8.80
2022-11-19T14:27:34.209Z,8.80
2022-11-19T14:30:09.293Z,8.80
2022-11-19T14:32:45.504Z,8.80
2022-11-19T14:35:25.878Z,8.90
2022-11-19T14:37:55.717Z,8.90
2022-11-19T14:40:28.573Z,8.90
2022-11-19T14:43:33.654Z,8.90
2022-11-19T14:46:06.343Z,8.70
2022-11-19T14:48:34.760Z,8.50
2022-11-19T14:51:31.916Z,8.40
2022-11-19T14:54:06.522Z,8.20
2022-11-19T14:56:37.011Z,8.20
2022-11-19T14:59:15.944Z,8.10
2022-11-19T15:01:57.695Z,8.00
2022-11-19T15:04:45.694Z,7.90
2022-11-19T15:07:17.754Z,7.90
2022-11-19T15:10:05.324Z,7.80
2022-11-19T15:12:44.165Z,7.80
2022-11-19T15:15:19.667Z,7.70
2022-11-19T15:17:46.271Z,7.60
2022-11-19T15:20:18.779Z,7.60
2022-11-19T15:23:12.206Z,7.60
2022-11-19T15:26:08.203Z,7.50
2022-11-19T15:29:11.389Z,7.50
2022-11-19T15:32:04.743Z,7.50
2022-11-19T15:35:10.288Z,7.40
2022-11-19T15:38:07.523Z,7.40
2022-11-19T15:40:34.854Z,7.30
2022-11-19T15:43:04.217Z,7.30
2022-11-19T15:45:38.680Z,7.30
2022-11-19T15:48:20.692Z,7.30
2022-11-19T15:50:48.529Z,7.20
2022-11-19T15:53:16.522Z,7.20
2022-11-19T15:55:51.970Z,7.20
2022-11-19T15:58:21.740Z,7.20
2022-11-19T16:00:50.388Z,7.10
2022-11-19T16:03:17.682Z,7.10
2022-11-19T16:06:07.516Z,7.10
2022-11-19T16:08:34.853Z,7.10
2022-11-19T16:11:21.631Z,7.10
2022-11-19T16:14:11.043Z,7.10
2022-11-19T16:16:57.901Z,7.10
2022-11-19T16:19:24.746Z,7.00
2022-11-19T16:21:56.412Z,7.00
2022-11-19T16:24:43.697Z,7.00
2022-11-19T16:27:13.041Z,7.10
2022-11-19T16:29:42.241Z,7.10
2022-11-19T16:32:13.548Z,7.10
2022-11-19T16:34:40.565Z,7.10
2022-11-19T16:37:18.674Z,7.10
2022-11-19T16:39:51.582Z,7.10
2022-11-19T16:42:23.039Z,7.10
2022-11-19T16:44:54.084Z,7.00
2022-11-19T16:47:29.670Z,7.00
2022-11-19T16:50:03.005Z,7.00
2022-11-19T16:52:35.610Z,7.00
2022-11-19T16:55:05.883Z,7.00
2022-11-19T16:57:32.901Z,6.90
2022-11-19T17:00:04.387Z,6.90
2022-11-19T17:02:37.394Z,6.90
2022-11-19T17:05:17.747Z,6.90
2022-11-19T17:07:48.718Z,6.80
2022-11-19T17:10:30.306Z,6.80
2022-11-19T17:13:13.659Z,6.80
2022-11-19T17:15:44.925Z,6.80
2022-11-19T17:18:17.871Z,6.80
2022-11-19T17:20:44.537Z,6.80
2022-11-19T17:23:23.295Z,6.90
2022-11-19T17:25:57.091Z,6.80
2022-11-19T17:28:35.112Z,6.80
2022-11-19T17:31:23.957Z,6.80
2022-11-19T17:34:19.570Z,6.80
2022-11-19T17:36:46.520Z,6.80
2022-11-19T17:39:14.849Z,6.70
2022-11-19T17:42:02.099Z,6.70
2022-11-19T17:44:49.118Z,6.70
2022-11-19T17:47:23.191Z,6.70
2022-11-19T17:49:51.397Z,6.70
2022-11-19T17:52:30.023Z,6.70
2022-11-19T17:55:19.922Z,6.80
2022-11-19T17:57:46.625Z,6.70
2022-11-19T18:00:13.869Z,6.80
2022-11-19T18:02:40.547Z,6.80
2022-11-19T18:05:20.779Z,6.80
2022-11-19T18:07:47.410Z,6.80
2022-11-19T18:10:14.091Z,6.80
2022-11-19T18:12:40.923Z,6.90
2022-11-19T18:15:11.536Z,7.00
2022-11-19T18:17:38.135Z,7.00
2022-11-19T18:20:05.313Z,7.00
2022-11-19T18:22:31.956Z,6.90
2022-11-19T18:24:59.296Z,6.80
2022-11-19T18:27:26.080Z,6.80
2022-11-19T18:29:53.577Z,6.70
2022-11-19T18:32:20.221Z,6.70
2022-11-19T18:34:46.893Z,6.60
2022-11-19T18:37:13.674Z,6.60
2022-11-19T18:39:40.315Z,6.50
2022-11-19T18:42:09.217Z,6.50
2022-11-19T18:44:35.969Z,6.40
2022-11-19T18:47:03.849Z,6.40
2022-11-19T18:49:30.715Z,6.30
2022-11-19T18:51:57.404Z,6.30
2022-11-19T18:54:24.131Z,6.30
2022-11-19T18:56:51.024Z,6.30
2022-11-19T18:59:18.041Z,6.20
2022-11-19T19:01:44.791Z,6.20
2022-11-19T19:04:14.281Z,6.20
2022-11-19T19:06:41.819Z,6.20
2022-11-19T19:09:10.377Z,6.20
2022-11-19T19:11:56.612Z,6.10
2022-11-19T19:14:23.392Z,6.00
2022-11-19T19:16:50.946Z,5.90
2022-11-19T19:19:19.985Z,5.90
2022-11-19T19:21:47.509Z,5.90
2022-11-19T19:24:14.598Z,5.80
2022-11-19T19:26:41.729Z,5.80
2022-11-19T19:29:08.734Z,5.70
2022-11-19T19:31:35.617Z,5.70
2022-11-19T19:34:02.602Z,5.70
2022-11-19T19:36:29.603Z,5.70
2022-11-19T19:38:56.423Z,5.70
2022-11-19T19:41:25.510Z,5.70
2022-11-19T19:43:53.918Z,5.70
2022-11-19T19:46:22.413Z,5.70
2022-11-19T19:48:51.676Z,5.60
2022-11-19T19:51:20.676Z,5.60
2022-11-19T19:53:47.987Z,5.60
2022-11-19T19:56:19.962Z,5.60
2022-11-19T19:58:48.200Z,5.60
2022-11-19T20:01:16.934Z,5.60
2022-11-19T20:03:44.530Z,5.60
2022-11-19T20:06:13.485Z,5.60
2022-11-19T20:08:41.565Z,5.60
2022-11-19T20:11:10.599Z,5.60
2022-11-19T20:13:38.035Z,5.60
2022-11-19T20:16:09.905Z,5.60
2022-11-19T20:18:39.119Z,5.60
2022-11-19T20:21:10.750Z,5.60
2022-11-19T20:23:38.562Z,5.60
2022-11-19T20:26:08.093Z,5.60
2022-11-19T20:28:34.896Z,5.60
2022-11-19T20:31:07.800Z,5.60
2022-11-19T20:33:34.938Z,5.60
2022-11-19T20:36:02.134Z,5.60
2022-11-19T20:38:29.033Z,5.60
2022-11-19T20:41:00.784Z,5.60
2022-11-19T20:43:52.626Z,5.60
2022-11-19T20:46:21.449Z,5.60
2022-11-19T20:48:48.771Z,5.60
2022-11-19T20:51:20.595Z,5.60
2022-11-19T20:53:47.239Z,5.60
2022-11-19T20:56:14.530Z,5.60
2022-11-19T20:58:41.199Z,5.60
2022-11-19T21:01:11.563Z,5.60
2022-11-19T21:03:38.493Z,5.60
2022-11-19T21:06:07.609Z,5.60
2022-11-19T21:08:35.600Z,5.60
2022-11-19T21:11:09.141Z,5.60
2022-11-19T21:13:36.965Z,5.50
2022-11-19T21:16:13.930Z,5.50
2022-11-19T21:18:42.649Z,5.40
2022-11-19T21:21:11.615Z,5.40
2022-11-19T21:23:39.671Z,5.40
2022-11-19T21:26:09.841Z,5.40
2022-11-19T21:28:37.367Z,5.40
2022-11-19T21:31:05.205Z,5.40
2022-11-19T21:33:32.155Z,5.40
2022-11-19T21:35:59.790Z,5.40
2022-11-19T21:38:26.457Z,5.50
2022-11-19T21:40:55.555Z,5.50
2022-11-19T21:43:23.763Z,5.50
2022-11-19T21:45:53.524Z,5.50
2022-11-19T21:48:24.786Z,5.50
2022-11-19T21:50:52.219Z,5.50
2022-11-19T21:53:19.214Z,5.40
2022-11-19T21:55:46.702Z,5.40
2022-11-19T21:58:14.711Z,5.30
2022-11-19T22:00:42.225Z,5.30
2022-11-19T22:03:09.120Z,5.20
2022-11-19T22:05:35.903Z,5.20
2022-11-19T22:08:02.982Z,5.20
2022-11-19T22:10:29.937Z,5.20
2022-11-19T22:12:58.691Z,5.20
2022-11-19T22:15:26.219Z,5.20
2022-11-19T22:17:53.055Z,5.20
2022-11-19T22:20:19.716Z,5.20
2022-11-19T22:22:46.592Z,5.10
2022-11-19T22:25:13.871Z,5.10
2022-11-19T22:27:41.695Z,5.00
2022-11-19T22:30:10.187Z,4.90
2022-11-19T22:32:37.094Z,4.90
2022-11-19T22:35:04.658Z,4.80
2022-11-19T22:37:31.974Z,4.70
2022-11-19T22:39:58.675Z,4.70
2022-11-19T22:42:25.383Z,4.70
2022-11-19T22:44:52.338Z,4.80
2022-11-19T22:47:18.982Z,4.80
2022-11-19T22:49:45.627Z,4.80
2022-11-19T22:52:14.485Z,4.90
2022-11-19T22:54:41.981Z,4.90
2022-11-19T22:57:09.120Z,4.90
2022-11-19T22:59:35.999Z,5.00
2022-11-19T23:02:03.219Z,5.00
2022-11-19T23:04:30.083Z,5.00
2022-11-19T23:06:56.905Z,5.00
2022-11-19T23:09:24.049Z,5.00
2022-11-19T23:12:09.549Z,5.10
2022-11-19T23:14:36.199Z,5.10
2022-11-19T23:17:02.876Z,5.10
2022-11-19T23:19:30.132Z,5.10
2022-11-19T23:21:56.833Z,5.10
2022-11-19T23:24:23.611Z,5.10
2022-11-19T23:26:50.277Z,5.10
2022-11-19T23:29:17.111Z,5.10
2022-11-19T23:31:43.769Z,5.10
2022-11-19T23:34:10.585Z,5.10
2022-11-19T23:36:39.787Z,5.10
2022-11-19T23:39:10.266Z,5.10
2022-11-19T23:41:37.064Z,5.20
2022-11-19T23:44:04.011Z,5.20
2022-11-19T23:46:33.182Z,5.30
2022-11-19T23:49:00.785Z,5.30
2022-11-19T23:51:37.847Z,5.30
2022-11-19T23:54:05.619Z,5.40
2022-11-19T23:56:34.048Z,5.40
2022-11-19T23:59:02.180Z,5.40
